createdAt,value
2018-07-04T00:06:39.514Z,0
2018-07-04T00:16:39.710Z,0
2018-07-04T00:26:39.400Z,0
2018-07-04T00:36:39.432Z,0
2018-07-04T00:46:39.830Z,0
2018-07-04T00:56:39.400Z,0
2018-07-04T01:06:39.340Z,0
2018-07-04T01:16:39.385Z,0
2018-07-04T01:26:39.319Z,0
2018-07-04T01:36:39.317Z,0
2018-07-04T01:46:39.388Z,0
2018-07-04T01:56:39.369Z,0
2018-07-04T02:06:39.272Z,0
2018-07-04T02:16:39.366Z,0
2018-07-04T02:26:39.317Z,0
2018-07-04T02:36:39.380Z,4
2018-07-04T02:46:39.348Z,16
2018-07-04T02:56:39.318Z,68
2018-07-04T03:06:39.323Z,176
2018-07-04T03:16:39.344Z,396
2018-07-04T03:26:39.243Z,604
2018-07-04T03:36:39.344Z,1028
2018-07-04T03:46:39.302Z,1904
2018-07-04T03:56:39.359Z,2700
2018-07-04T04:06:39.337Z,3236
2018-07-04T04:16:39.268Z,3080
2018-07-04T04:26:39.326Z,4056
2018-07-04T04:36:39.332Z,5516
2018-07-04T04:46:39.362Z,6740
2018-07-04T04:56:39.331Z,5056
2018-07-04T05:06:39.313Z,6336
2018-07-04T05:16:39.353Z,8016
2018-07-04T05:26:39.357Z,14408
2018-07-04T05:36:39.323Z,13276
2018-07-04T05:46:39.352Z,19456
2018-07-04T05:56:39.379Z,16188
2018-07-04T06:06:39.396Z,32256
2018-07-04T06:16:39.383Z,23648
2018-07-04T06:26:39.307Z,15388
2018-07-04T06:36:39.670Z,13500
2018-07-04T06:46:39.328Z,13296
2018-07-04T06:56:39.402Z,15540
2018-07-04T07:06:39.334Z,18816
2018-07-04T07:16:39.293Z,20960
2018-07-04T07:26:39.381Z,20512
2018-07-04T07:36:39.326Z,42656
2018-07-04T07:46:39.409Z,25888
2018-07-04T07:56:39.345Z,21440
2018-07-04T08:06:39.322Z,21120
2018-07-04T08:16:39.377Z,76704
2018-07-04T08:26:39.350Z,66656
2018-07-04T08:36:39.358Z,79744
2018-07-04T08:46:39.356Z,55712
2018-07-04T08:56:39.445Z,77248
2018-07-04T09:06:39.416Z,16432
2018-07-04T09:16:39.337Z,14312
2018-07-04T09:26:39.433Z,14096
2018-07-04T09:36:39.455Z,13108
2018-07-04T09:46:39.384Z,12500
2018-07-04T09:56:39.361Z,12016
2018-07-04T10:06:39.356Z,13900
2018-07-04T10:16:39.337Z,13916
2018-07-04T10:26:39.544Z,11236
2018-07-04T10:36:39.369Z,10784
2018-07-04T10:46:39.535Z,11460
2018-07-04T10:56:39.391Z,10584
2018-07-04T11:06:39.482Z,9932
2018-07-04T11:16:39.495Z,9296
2018-07-04T11:26:39.420Z,8620
2018-07-04T11:36:39.388Z,8580
2018-07-04T11:46:39.414Z,7704
2018-07-04T11:56:39.427Z,7872
2018-07-04T12:06:39.415Z,9988
2018-07-04T12:16:39.421Z,10652
2018-07-04T12:26:39.410Z,7440
2018-07-04T12:36:39.357Z,6960
2018-07-04T12:46:39.365Z,8276
2018-07-04T12:56:39.376Z,7284
2018-07-04T13:06:39.405Z,7644
2018-07-04T13:16:39.399Z,8140
2018-07-04T13:26:39.382Z,7240
2018-07-04T13:36:39.451Z,7268
2018-07-04T13:46:39.574Z,7244
2018-07-04T13:56:39.376Z,7752
2018-07-04T14:06:39.408Z,8580
2018-07-04T14:16:39.666Z,7272
2018-07-04T14:26:39.656Z,8008
2018-07-04T14:36:39.503Z,11364
2018-07-04T14:46:39.516Z,8928
2018-07-04T14:56:39.634Z,10652
2018-07-04T15:06:39.607Z,8004
2018-07-04T15:16:39.869Z,5032
2018-07-04T15:26:39.725Z,7996
2018-07-04T15:36:39.472Z,7272
2018-07-04T15:46:39.486Z,7476
2018-07-04T15:56:39.559Z,8024
2018-07-04T16:06:42.747Z,9752
2018-07-04T16:16:39.503Z,10436
2018-07-04T16:26:39.724Z,8040
2018-07-04T16:36:39.630Z,6708
2018-07-04T16:46:40.477Z,8152
2018-07-04T16:56:39.500Z,5964
2018-07-04T17:06:39.578Z,4848
2018-07-04T17:16:39.583Z,4160
2018-07-04T17:26:46.737Z,3288
2018-07-04T17:36:39.555Z,1948
2018-07-04T17:46:40.193Z,1632
2018-07-04T17:56:39.922Z,1460
2018-07-04T18:06:39.602Z,1308
2018-07-04T18:16:39.762Z,1284
2018-07-04T18:26:39.593Z,1412
2018-07-04T18:36:39.581Z,1640
2018-07-04T18:46:40.045Z,1616
2018-07-04T18:56:39.687Z,1352
2018-07-04T19:06:39.554Z,1052
2018-07-04T19:16:39.835Z,920
2018-07-04T19:26:39.651Z,636
2018-07-04T19:36:39.916Z,400
2018-07-04T19:46:43.123Z,232
2018-07-04T19:56:39.676Z,120
2018-07-04T20:06:39.750Z,52
2018-07-04T20:16:39.735Z,16
2018-07-04T20:26:39.955Z,4
2018-07-04T20:36:39.660Z,0
2018-07-04T20:46:39.618Z,0
2018-07-04T20:56:39.698Z,0
2018-07-04T21:06:39.733Z,0
2018-07-04T21:16:39.633Z,0
2018-07-04T21:26:39.708Z,0
2018-07-04T21:36:39.901Z,0
2018-07-04T21:46:39.853Z,0
2018-07-04T21:56:40.643Z,0
2018-07-04T22:06:39.860Z,0
2018-07-04T22:16:39.707Z,0
2018-07-04T22:26:39.679Z,0
2018-07-04T22:36:39.799Z,0
2018-07-04T22:46:39.751Z,0
2018-07-04T22:56:46.756Z,0
2018-07-04T23:06:46.704Z,0
2018-07-04T23:16:39.527Z,0
2018-07-04T23:26:39.629Z,0
2018-07-04T23:36:39.624Z,0
2018-07-04T23:46:39.581Z,0
2018-07-04T23:56:39.768Z,0
